sensor_id;sensor_type;location;lat;lon;timestamp;pressure;altitude;pressure_sealevel;temperature;humidity
11212;BME280;5663;50.864;12.096;2023-04-10T00:02:22;100287.94;;;4.45;65.35
11212;BME280;5663;50.864;12.096;2023-04-10T00:04:50;100288.84;;;4.41;65.78
11212;BME280;5663;50.864;12.096;2023-04-10T00:07:19;100279.47;;;4.35;65.35
11212;BME280;5663;50.864;12.096;2023-04-10T00:09:47;100280.38;;;4.31;65.11
11212;BME280;5663;50.864;12.096;2023-04-10T00:12:16;100289.00;;;4.27;65.85
11212;BME280;5663;50.864;12.096;2023-04-10T00:14:44;100280.50;;;4.19;65.23
11212;BME280;5663;50.864;12.096;2023-04-10T00:17:12;100287.34;;;4.20;65.63
11212;BME280;5663;50.864;12.096;2023-04-10T00:19:39;100290.81;;;4.19;66.04
11212;BME280;5663;50.864;12.096;2023-04-10T00:22:07;100277.94;;;4.17;65.33
11212;BME280;5663;50.864;12.096;2023-04-10T00:24:36;100280.53;;;4.16;65.91
11212;BME280;5663;50.864;12.096;2023-04-10T00:27:04;100278.84;;;4.12;65.89
11212;BME280;5663;50.864;12.096;2023-04-10T00:29:31;100271.16;;;4.09;66.06
11212;BME280;5663;50.864;12.096;2023-04-10T00:32:00;100274.63;;;4.05;66.18
11212;BME280;5663;50.864;12.096;2023-04-10T00:34:28;100277.22;;;4.05;66.17
11212;BME280;5663;50.864;12.096;2023-04-10T00:36:57;100272.06;;;4.05;66.28
11212;BME280;5663;50.864;12.096;2023-04-10T00:39:26;100272.03;;;4.08;65.88
11212;BME280;5663;50.864;12.096;2023-04-10T00:41:55;100260.88;;;4.09;65.84
11212;BME280;5663;50.864;12.096;2023-04-10T00:44:23;100239.59;;;3.91;65.97
11212;BME280;5663;50.864;12.096;2023-04-10T00:46:51;100260.06;;;4.04;65.47
11212;BME280;5663;50.864;12.096;2023-04-10T00:49:20;100229.34;;;3.88;65.52
11212;BME280;5663;50.864;12.096;2023-04-10T00:51:48;100250.66;;;4.01;65.59
11212;BME280;5663;50.864;12.096;2023-04-10T00:54:15;100253.19;;;4.03;65.48
11212;BME280;5663;50.864;12.096;2023-04-10T00:56:44;100259.25;;;3.99;65.53
11212;BME280;5663;50.864;12.096;2023-04-10T00:59:14;100251.56;;;3.95;65.99
11212;BME280;5663;50.864;12.096;2023-04-10T01:01:42;100254.16;;;3.95;65.60
11212;BME280;5663;50.864;12.096;2023-04-10T01:04:10;100255.00;;;3.94;65.40
11212;BME280;5663;50.864;12.096;2023-04-10T01:06:49;100251.59;;;3.92;65.97
11212;BME280;5663;50.864;12.096;2023-04-10T01:09:26;100241.34;;;3.86;65.81
11212;BME280;5663;50.864;12.096;2023-04-10T01:12:00;100203.09;;;3.51;65.66
11212;BME280;5663;50.864;12.096;2023-04-10T01:14:40;100250.03;;;3.76;66.12
11212;BME280;5663;50.864;12.096;2023-04-10T01:17:17;100238.94;;;3.69;65.84
11212;BME280;5663;50.864;12.096;2023-04-10T01:20:01;100241.53;;;3.66;66.24
11212;BME280;5663;50.864;12.096;2023-04-10T01:22:35;100242.38;;;3.68;65.82
11212;BME280;5663;50.864;12.096;2023-04-10T01:25:24;100243.25;;;3.66;66.14
11212;BME280;5663;50.864;12.096;2023-04-10T01:28:06;100246.72;;;3.63;66.13
11212;BME280;5663;50.864;12.096;2023-04-10T01:30:41;100242.44;;;3.61;66.13
11212;BME280;5663;50.864;12.096;2023-04-10T01:33:12;100245.91;;;3.57;66.12
11212;BME280;5663;50.864;12.096;2023-04-10T01:35:48;100246.81;;;3.53;66.09
11212;BME280;5663;50.864;12.096;2023-04-10T01:38:18;100255.41;;;3.47;66.11
11212;BME280;5663;50.864;12.096;2023-04-10T01:40:51;100253.75;;;3.41;66.47
11212;BME280;5663;50.864;12.096;2023-04-10T01:43:20;100256.28;;;3.43;66.59
11212;BME280;5663;50.864;12.096;2023-04-10T01:45:50;100258.88;;;3.44;66.27
11212;BME280;5663;50.864;12.096;2023-04-10T01:48:19;100261.44;;;3.43;66.37
11212;BME280;5663;50.864;12.096;2023-04-10T01:50:47;100251.19;;;3.38;66.82
11212;BME280;5663;50.864;12.096;2023-04-10T01:53:16;100252.06;;;3.37;66.56
11212;BME280;5663;50.864;12.096;2023-04-10T01:55:45;100231.63;;;3.19;66.61
11212;BME280;5663;50.864;12.096;2023-04-10T01:58:13;100244.41;;;3.30;66.44
11212;BME280;5663;50.864;12.096;2023-04-10T02:00:42;100235.06;;;3.18;67.05
11212;BME280;5663;50.864;12.096;2023-04-10T02:03:11;100256.44;;;3.28;66.66
11212;BME280;5663;50.864;12.096;2023-04-10T02:05:48;100260.72;;;3.27;67.03
11212;BME280;5663;50.864;12.096;2023-04-10T02:08:23;100259.00;;;3.23;66.84
11212;BME280;5663;50.864;12.096;2023-04-10T02:10:58;100247.06;;;3.16;66.86
11212;BME280;5663;50.864;12.096;2023-04-10T02:13:29;100249.63;;;3.17;67.21
11212;BME280;5663;50.864;12.096;2023-04-10T02:16:03;100234.25;;;3.10;66.96
11212;BME280;5663;50.864;12.096;2023-04-10T02:18:36;100241.13;;;3.09;67.25
11212;BME280;5663;50.864;12.096;2023-04-10T02:21:06;100245.41;;;3.09;67.44
11212;BME280;5663;50.864;12.096;2023-04-10T02:23:34;100243.66;;;3.11;67.49
11212;BME280;5663;50.864;12.096;2023-04-10T02:26:06;100243.72;;;3.08;67.64
11212;BME280;5663;50.864;12.096;2023-04-10T02:28:36;100241.97;;;3.07;67.25
11212;BME280;5663;50.864;12.096;2023-04-10T02:31:05;100242.03;;;3.04;67.17
11212;BME280;5663;50.864;12.096;2023-04-10T02:33:34;100242.03;;;3.01;67.86
11212;BME280;5663;50.864;12.096;2023-04-10T02:36:02;100242.91;;;2.96;67.99
11212;BME280;5663;50.864;12.096;2023-04-10T02:38:30;100243.75;;;2.99;67.81
11212;BME280;5663;50.864;12.096;2023-04-10T02:40:58;100225.00;;;2.87;67.73
11212;BME280;5663;50.864;12.096;2023-04-10T02:43:25;100243.72;;;3.02;67.41
11212;BME280;5663;50.864;12.096;2023-04-10T02:45:53;100229.16;;;2.99;67.80
11212;BME280;5663;50.864;12.096;2023-04-10T02:48:21;100246.25;;;3.06;67.83
11212;BME280;5663;50.864;12.096;2023-04-10T02:50:55;100251.41;;;3.08;67.53
11212;BME280;5663;50.864;12.096;2023-04-10T02:53:22;100233.50;;;2.95;67.31
11212;BME280;5663;50.864;12.096;2023-04-10T02:55:52;100248.03;;;3.01;67.50
11212;BME280;5663;50.864;12.096;2023-04-10T02:58:20;100252.28;;;3.02;67.90
11212;BME280;5663;50.864;12.096;2023-04-10T03:00:48;100252.28;;;3.04;67.36
11212;BME280;5663;50.864;12.096;2023-04-10T03:03:17;100228.41;;;2.86;67.12
11212;BME280;5663;50.864;12.096;2023-04-10T03:05:45;100260.00;;;3.02;67.30
11212;BME280;5663;50.864;12.096;2023-04-10T03:08:16;100260.00;;;3.01;67.18
11212;BME280;5663;50.864;12.096;2023-04-10T03:10:44;100263.47;;;3.00;67.51
11212;BME280;5663;50.864;12.096;2023-04-10T03:13:14;100266.88;;;2.97;67.23
11212;BME280;5663;50.864;12.096;2023-04-10T03:15:42;100267.75;;;2.93;67.43
11212;BME280;5663;50.864;12.096;2023-04-10T03:18:10;100262.63;;;2.90;67.57
11212;BME280;5663;50.864;12.096;2023-04-10T03:20:37;100261.81;;;2.88;67.50
11212;BME280;5663;50.864;12.096;2023-04-10T03:23:05;100248.94;;;2.86;67.73
11212;BME280;5663;50.864;12.096;2023-04-10T03:25:36;100255.81;;;2.87;67.37
11212;BME280;5663;50.864;12.096;2023-04-10T03:28:04;100251.56;;;2.83;67.61
11212;BME280;5663;50.864;12.096;2023-04-10T03:30:31;100257.53;;;2.85;67.63
11212;BME280;5663;50.864;12.096;2023-04-10T03:33:01;100265.25;;;2.84;67.61
11212;BME280;5663;50.864;12.096;2023-04-10T03:35:29;100262.66;;;2.82;67.61
11212;BME280;5663;50.864;12.096;2023-04-10T03:37:56;100255.00;;;2.81;67.68
11212;BME280;5663;50.864;12.096;2023-04-10T03:40:24;100254.16;;;2.77;68.21
11212;BME280;5663;50.864;12.096;2023-04-10T03:42:53;100250.72;;;2.75;68.25
11212;BME280;5663;50.864;12.096;2023-04-10T03:45:21;100249.00;;;2.77;67.85
11212;BME280;5663;50.864;12.096;2023-04-10T03:47:49;100248.13;;;2.78;67.75
11212;BME280;5663;50.864;12.096;2023-04-10T03:50:17;100238.78;;;2.68;67.98
11212;BME280;5663;50.864;12.096;2023-04-10T03:52:45;100252.44;;;2.73;68.16
11212;BME280;5663;50.864;12.096;2023-04-10T03:55:14;100254.16;;;2.74;68.03
11212;BME280;5663;50.864;12.096;2023-04-10T03:57:44;100253.28;;;2.75;67.63
11212;BME280;5663;50.864;12.096;2023-04-10T04:00:14;100244.72;;;2.75;67.46
11212;BME280;5663;50.864;12.096;2023-04-10T04:02:42;100254.16;;;2.77;67.76
11212;BME280;5663;50.864;12.096;2023-04-10T04:05:10;100257.59;;;2.76;67.44
11212;BME280;5663;50.864;12.096;2023-04-10T04:07:38;100253.28;;;2.77;67.49
11212;BME280;5663;50.864;12.096;2023-04-10T04:10:06;100253.28;;;2.78;67.67
11212;BME280;5663;50.864;12.096;2023-04-10T04:12:34;100235.38;;;2.63;67.53
11212;BME280;5663;50.864;12.096;2023-04-10T04:15:02;100255.84;;;2.75;67.49
11212;BME280;5663;50.864;12.096;2023-04-10T04:17:32;100257.59;;;2.76;67.34
11212;BME280;5663;50.864;12.096;2023-04-10T04:20:00;100267.88;;;2.73;67.48
11212;BME280;5663;50.864;12.096;2023-04-10T04:22:27;100267.88;;;2.73;67.30
11212;BME280;5663;50.864;12.096;2023-04-10T04:24:55;100267.88;;;2.70;67.58
11212;BME280;5663;50.864;12.096;2023-04-10T04:27:23;100265.31;;;2.68;67.52
11212;BME280;5663;50.864;12.096;2023-04-10T04:29:50;100252.50;;;2.62;67.52
11212;BME280;5663;50.864;12.096;2023-04-10T04:32:18;100265.31;;;2.65;67.61
11212;BME280;5663;50.864;12.096;2023-04-10T04:34:47;100258.50;;;2.60;67.55
11212;BME280;5663;50.864;12.096;2023-04-10T04:37:15;100265.34;;;2.61;67.78
11212;BME280;5663;50.864;12.096;2023-04-10T04:39:42;100273.91;;;2.61;67.76
11212;BME280;5663;50.864;12.096;2023-04-10T04:42:10;100266.22;;;2.60;67.77
11212;BME280;5663;50.864;12.096;2023-04-10T04:44:38;100226.09;;;2.33;67.97
11212;BME280;5663;50.864;12.096;2023-04-10T04:47:06;100261.09;;;2.57;67.72
11212;BME280;5663;50.864;12.096;2023-04-10T04:49:34;100261.09;;;2.57;68.08
11212;BME280;5663;50.864;12.096;2023-04-10T04:52:03;100265.38;;;2.56;68.06
11212;BME280;5663;50.864;12.096;2023-04-10T04:54:31;100257.66;;;2.55;68.26
11212;BME280;5663;50.864;12.096;2023-04-10T04:56:58;100262.78;;;2.55;68.26
11212;BME280;5663;50.864;12.096;2023-04-10T04:59:26;100259.38;;;2.56;68.34
11212;BME280;5663;50.864;12.096;2023-04-10T05:01:54;100247.41;;;2.52;67.95
11212;BME280;5663;50.864;12.096;2023-04-10T05:04:22;100256.78;;;2.60;68.31
11212;BME280;5663;50.864;12.096;2023-04-10T05:06:50;100243.13;;;2.51;67.99
11212;BME280;5663;50.864;12.096;2023-04-10T05:09:19;100255.91;;;2.66;68.01
11212;BME280;5663;50.864;12.096;2023-04-10T05:11:46;100252.47;;;2.67;68.06
11212;BME280;5663;50.864;12.096;2023-04-10T05:14:15;100254.19;;;2.68;68.35
11212;BME280;5663;50.864;12.096;2023-04-10T05:16:43;100253.31;;;2.69;68.28
11212;BME280;5663;50.864;12.096;2023-04-10T05:19:11;100255.84;;;2.75;68.25
11212;BME280;5663;50.864;12.096;2023-04-10T05:21:38;100264.41;;;2.80;67.93
11212;BME280;5663;50.864;12.096;2023-04-10T05:24:06;100260.97;;;2.84;68.26
11212;BME280;5663;50.864;12.096;2023-04-10T05:26:36;100260.06;;;2.90;68.22
11212;BME280;5663;50.864;12.096;2023-04-10T05:29:04;100265.16;;;2.97;67.89
11212;BME280;5663;50.864;12.096;2023-04-10T05:31:32;100266.84;;;3.05;68.01
11212;BME280;5663;50.864;12.096;2023-04-10T05:34:00;100260.81;;;3.09;68.00
11212;BME280;5663;50.864;12.096;2023-04-10T05:36:27;100267.63;;;3.16;67.94
11212;BME280;5663;50.864;12.096;2023-04-10T05:38:55;100268.47;;;3.19;67.52
11212;BME280;5663;50.864;12.096;2023-04-10T05:41:23;100262.44;;;3.25;67.82
11212;BME280;5663;50.864;12.096;2023-04-10T05:43:52;100261.56;;;3.28;68.13
11212;BME280;5663;50.864;12.096;2023-04-10T05:46:20;100262.41;;;3.31;67.63
11212;BME280;5663;50.864;12.096;2023-04-10T05:48:47;100269.16;;;3.41;67.94
11212;BME280;5663;50.864;12.096;2023-04-10T05:51:16;100233.28;;;3.26;68.01
11212;BME280;5663;50.864;12.096;2023-04-10T05:53:44;100270.81;;;3.52;67.67
11212;BME280;5663;50.864;12.096;2023-04-10T05:56:12;100236.63;;;3.37;68.14
11212;BME280;5663;50.864;12.096;2023-04-10T05:58:39;100260.44;;;3.61;68.13
11212;BME280;5663;50.864;12.096;2023-04-10T06:01:08;100264.66;;;3.69;68.20
11212;BME280;5663;50.864;12.096;2023-04-10T06:03:36;100258.56;;;3.78;67.96
11212;BME280;5663;50.864;12.096;2023-04-10T06:06:05;100255.09;;;3.82;67.90
11212;BME280;5663;50.864;12.096;2023-04-10T06:08:34;100256.78;;;3.88;68.49
11212;BME280;5663;50.864;12.096;2023-04-10T06:11:02;100253.28;;;3.97;67.92
11212;BME280;5663;50.864;12.096;2023-04-10T06:13:30;100270.25;;;4.16;68.06
11212;BME280;5663;50.864;12.096;2023-04-10T06:15:57;100264.06;;;4.31;68.53
11212;BME280;5663;50.864;12.096;2023-04-10T06:18:28;100265.69;;;4.39;68.28
11212;BME280;5663;50.864;12.096;2023-04-10T06:20:56;100251.03;;;4.44;68.12
11212;BME280;5663;50.864;12.096;2023-04-10T06:23:26;100245.78;;;4.51;68.75
11212;BME280;5663;50.864;12.096;2023-04-10T06:25:55;100235.50;;;4.51;68.66
11212;BME280;5663;50.864;12.096;2023-04-10T06:28:22;100253.31;;;4.69;68.56
11212;BME280;5663;50.864;12.096;2023-04-10T06:30:50;100251.50;;;4.77;69.38
11212;BME280;5663;50.864;12.096;2023-04-10T06:33:18;100231.81;;;4.70;69.15
11212;BME280;5663;50.864;12.096;2023-04-10T06:35:48;100241.91;;;4.88;69.33
11212;BME280;5663;50.864;12.096;2023-04-10T06:38:16;100256.06;;;5.20;69.63
11212;BME280;5663;50.864;12.096;2023-04-10T06:40:44;100256.66;;;5.37;69.58
11212;BME280;5663;50.864;12.096;2023-04-10T06:43:12;100253.78;;;5.54;69.48
11212;BME280;5663;50.864;12.096;2023-04-10T06:45:39;100223.59;;;5.61;69.41
11212;BME280;5663;50.864;12.096;2023-04-10T06:48:07;100231.56;;;6.00;69.67
11212;BME280;5663;50.864;12.096;2023-04-10T06:50:35;100238.44;;;6.44;69.69
11212;BME280;5663;50.864;12.096;2023-04-10T06:53:04;100235.56;;;6.58;69.48
11212;BME280;5663;50.864;12.096;2023-04-10T06:55:32;100231.97;;;6.65;69.81
11212;BME280;5663;50.864;12.096;2023-04-10T06:58:00;100235.31;;;6.70;69.92
11212;BME280;5663;50.864;12.096;2023-04-10T07:00:29;100228.13;;;6.84;69.97
11212;BME280;5663;50.864;12.096;2023-04-10T07:02:57;100239.75;;;7.04;69.85
11212;BME280;5663;50.864;12.096;2023-04-10T07:05:25;100233.31;;;7.22;70.55
11212;BME280;5663;50.864;12.096;2023-04-10T07:07:54;100212.53;;;7.26;70.58
11212;BME280;5663;50.864;12.096;2023-04-10T07:10:24;100223.16;;;7.50;70.92
11212;BME280;5663;50.864;12.096;2023-04-10T07:12:51;100224.69;;;7.58;70.70
11212;BME280;5663;50.864;12.096;2023-04-10T07:15:19;100208.97;;;7.66;71.23
11212;BME280;5663;50.864;12.096;2023-04-10T07:17:47;100217.50;;;8.02;71.27
11212;BME280;5663;50.864;12.096;2023-04-10T07:20:15;100222.03;;;8.25;71.45
11212;BME280;5663;50.864;12.096;2023-04-10T07:22:43;100231.03;;;8.45;71.66
11212;BME280;5663;50.864;12.096;2023-04-10T07:25:10;100216.94;;;8.55;71.96
11212;BME280;5663;50.864;12.096;2023-04-10T07:27:41;100215.63;;;8.70;72.03
11212;BME280;5663;50.864;12.096;2023-04-10T07:30:10;100222.19;;;8.81;71.60
11212;BME280;5663;50.864;12.096;2023-04-10T07:32:37;100201.44;;;8.81;71.33
11212;BME280;5663;50.864;12.096;2023-04-10T07:35:08;100222.06;;;9.14;71.67
11212;BME280;5663;50.864;12.096;2023-04-10T07:37:36;100216.09;;;9.38;71.23
11212;BME280;5663;50.864;12.096;2023-04-10T07:40:06;100218.56;;;9.68;71.43
11212;BME280;5663;50.864;12.096;2023-04-10T07:42:34;100208.81;;;10.00;71.08
11212;BME280;5663;50.864;12.096;2023-04-10T07:45:03;100214.91;;;10.25;70.32
11212;BME280;5663;50.864;12.096;2023-04-10T07:47:31;100202.84;;;10.46;69.92
11212;BME280;5663;50.864;12.096;2023-04-10T07:49:59;100210.94;;;10.62;69.02
11212;BME280;5663;50.864;12.096;2023-04-10T07:52:27;100209.81;;;10.69;68.33
11212;BME280;5663;50.864;12.096;2023-04-10T07:54:56;100195.63;;;10.76;68.30
11212;BME280;5663;50.864;12.096;2023-04-10T07:57:25;100205.22;;;10.98;67.51
11212;BME280;5663;50.864;12.096;2023-04-10T07:59:54;100207.28;;;11.12;66.97
11212;BME280;5663;50.864;12.096;2023-04-10T08:02:24;100193.56;;;11.28;66.85
11212;BME280;5663;50.864;12.096;2023-04-10T08:04:51;100188.59;;;11.44;66.22
11212;BME280;5663;50.864;12.096;2023-04-10T08:07:19;100183.75;;;11.57;66.02
11212;BME280;5663;50.864;12.096;2023-04-10T08:09:47;100185.69;;;11.72;65.57
11212;BME280;5663;50.864;12.096;2023-04-10T08:12:15;100179.16;;;11.82;64.26
11212;BME280;5663;50.864;12.096;2023-04-10T08:14:42;100180.44;;;11.94;63.78
11212;BME280;5663;50.864;12.096;2023-04-10T08:17:10;100178.13;;;12.07;63.80
11212;BME280;5663;50.864;12.096;2023-04-10T08:19:41;100172.38;;;12.19;62.88
11212;BME280;5663;50.864;12.096;2023-04-10T08:22:09;100176.06;;;12.34;62.24
11212;BME280;5663;50.864;12.096;2023-04-10T08:24:38;100174.56;;;12.47;62.33
11212;BME280;5663;50.864;12.096;2023-04-10T08:27:06;100172.09;;;12.63;62.12
11212;BME280;5663;50.864;12.096;2023-04-10T08:29:34;100174.84;;;12.79;61.37
11212;BME280;5663;50.864;12.096;2023-04-10T08:32:01;100174.97;;;12.95;61.16
11212;BME280;5663;50.864;12.096;2023-04-10T08:34:29;100166.41;;;13.10;60.54
11212;BME280;5663;50.864;12.096;2023-04-10T08:36:58;100167.38;;;13.26;59.65
11212;BME280;5663;50.864;12.096;2023-04-10T08:39:26;100156.63;;;13.33;59.72
11212;BME280;5663;50.864;12.096;2023-04-10T08:41:54;100158.91;;;13.56;58.93
11212;BME280;5663;50.864;12.096;2023-04-10T08:44:22;100153.25;;;13.65;58.61
11212;BME280;5663;50.864;12.096;2023-04-10T08:46:51;100154.28;;;13.78;58.32
11212;BME280;5663;50.864;12.096;2023-04-10T08:49:23;100144.72;;;13.95;57.77
11212;BME280;5663;50.864;12.096;2023-04-10T08:51:55;100149.31;;;14.07;57.17
11212;BME280;5663;50.864;12.096;2023-04-10T08:54:27;100142.44;;;14.22;56.98
11212;BME280;5663;50.864;12.096;2023-04-10T08:56:57;100131.03;;;14.39;56.46
11212;BME280;5663;50.864;12.096;2023-04-10T08:59:28;100131.00;;;14.56;55.40
11212;BME280;5663;50.864;12.096;2023-04-10T09:01:55;100143.06;;;14.74;55.80
11212;BME280;5663;50.864;12.096;2023-04-10T09:04:23;100143.16;;;14.89;55.09
11212;BME280;5663;50.864;12.096;2023-04-10T09:06:52;100133.50;;;15.05;54.59
11212;BME280;5663;50.864;12.096;2023-04-10T09:09:19;100123.66;;;15.24;54.06
11212;BME280;5663;50.864;12.096;2023-04-10T09:11:59;100119.19;;;15.41;52.52
11212;BME280;5663;50.864;12.096;2023-04-10T09:14:30;100126.72;;;15.61;52.98
11212;BME280;5663;50.864;12.096;2023-04-10T09:17:12;100115.25;;;15.92;52.28
11212;BME280;5663;50.864;12.096;2023-04-10T09:19:40;100113.44;;;16.21;52.74
11212;BME280;5663;50.864;12.096;2023-04-10T09:22:09;100121.28;;;16.50;52.61
11212;BME280;5663;50.864;12.096;2023-04-10T09:24:40;100107.53;;;16.73;51.88
11212;BME280;5663;50.864;12.096;2023-04-10T09:27:10;100102.75;;;16.80;49.70
11212;BME280;5663;50.864;12.096;2023-04-10T09:29:53;100103.81;;;16.90;50.51
11212;BME280;5663;50.864;12.096;2023-04-10T09:32:36;100093.91;;;17.08;48.91
11212;BME280;5663;50.864;12.096;2023-04-10T09:35:06;100100.53;;;17.27;49.37
11212;BME280;5663;50.864;12.096;2023-04-10T09:37:34;100104.56;;;17.45;48.09
11212;BME280;5663;50.864;12.096;2023-04-10T09:40:03;100090.06;;;17.65;48.72
11212;BME280;5663;50.864;12.096;2023-04-10T09:42:34;100083.75;;;17.67;46.37
11212;BME280;5663;50.864;12.096;2023-04-10T09:45:02;100082.88;;;17.67;45.54
11212;BME280;5663;50.864;12.096;2023-04-10T09:47:31;100050.63;;;17.52;45.62
11212;BME280;5663;50.864;12.096;2023-04-10T09:50:00;100055.94;;;17.63;46.28
11212;BME280;5663;50.864;12.096;2023-04-10T09:52:31;100068.19;;;17.90;46.67
11212;BME280;5663;50.864;12.096;2023-04-10T09:55:00;100071.94;;;18.11;46.09
11212;BME280;5663;50.864;12.096;2023-04-10T09:57:30;100051.91;;;18.21;45.39
11212;BME280;5663;50.864;12.096;2023-04-10T10:00:00;100050.50;;;18.29;44.58
11212;BME280;5663;50.864;12.096;2023-04-10T10:02:30;100050.25;;;18.44;44.97
11212;BME280;5663;50.864;12.096;2023-04-10T10:05:03;100029.84;;;18.59;45.96
11212;BME280;5663;50.864;12.096;2023-04-10T10:07:31;100012.59;;;18.55;43.83
11212;BME280;5663;50.864;12.096;2023-04-10T10:10:01;100029.94;;;18.82;44.19
11212;BME280;5663;50.864;12.096;2023-04-10T10:12:35;100033.84;;;19.00;42.81
11212;BME280;5663;50.864;12.096;2023-04-10T10:15:15;100026.94;;;19.22;42.76
11212;BME280;5663;50.864;12.096;2023-04-10T10:17:51;100003.22;;;19.22;42.54
11212;BME280;5663;50.864;12.096;2023-04-10T10:20:22;100013.81;;;19.55;42.27
11212;BME280;5663;50.864;12.096;2023-04-10T10:22:51;100015.25;;;19.59;41.81
11212;BME280;5663;50.864;12.096;2023-04-10T10:25:23;99998.44;;;19.60;41.80
11212;BME280;5663;50.864;12.096;2023-04-10T10:27:52;100006.41;;;19.72;41.70
11212;BME280;5663;50.864;12.096;2023-04-10T10:30:26;99999.66;;;19.79;41.71
11212;BME280;5663;50.864;12.096;2023-04-10T10:32:56;99998.19;;;19.97;41.95
11212;BME280;5663;50.864;12.096;2023-04-10T10:35:36;99991.09;;;20.09;40.04
11212;BME280;5663;50.864;12.096;2023-04-10T10:38:09;99983.53;;;20.04;40.30
11212;BME280;5663;50.864;12.096;2023-04-10T10:40:43;99980.88;;;20.15;40.22
11212;BME280;5663;50.864;12.096;2023-04-10T10:43:30;99981.63;;;20.38;41.05
11212;BME280;5663;50.864;12.096;2023-04-10T10:46:13;99969.09;;;20.63;41.14
11212;BME280;5663;50.864;12.096;2023-04-10T10:48:57;99956.84;;;20.83;40.71
11212;BME280;5663;50.864;12.096;2023-04-10T10:51:53;99959.56;;;21.02;40.19
11212;BME280;5663;50.864;12.096;2023-04-10T10:54:30;99950.41;;;21.06;39.02
11212;BME280;5663;50.864;12.096;2023-04-10T10:56:59;99950.16;;;21.09;40.09
11212;BME280;5663;50.864;12.096;2023-04-10T10:59:55;99938.84;;;21.28;39.65
11212;BME280;5663;50.864;12.096;2023-04-10T11:02:25;99937.44;;;21.24;37.77
11212;BME280;5663;50.864;12.096;2023-04-10T11:04:53;99930.41;;;21.34;39.71
11212;BME280;5663;50.864;12.096;2023-04-10T11:07:21;99920.13;;;21.41;38.82
11212;BME280;5663;50.864;12.096;2023-04-10T11:10:12;99911.09;;;21.53;38.33
11212;BME280;5663;50.864;12.096;2023-04-10T11:13:14;99896.91;;;21.64;36.62
11212;BME280;5663;50.864;12.096;2023-04-10T11:15:43;99902.81;;;21.87;37.84
11212;BME280;5663;50.864;12.096;2023-04-10T11:18:15;99908.41;;;22.03;38.57
11212;BME280;5663;50.864;12.096;2023-04-10T11:21:07;99902.84;;;22.26;37.03
11212;BME280;5663;50.864;12.096;2023-04-10T11:23:35;99900.91;;;22.37;38.28
11212;BME280;5663;50.864;12.096;2023-04-10T11:26:05;99895.03;;;22.53;37.17
11212;BME280;5663;50.864;12.096;2023-04-10T11:28:35;99874.13;;;22.50;36.84
11212;BME280;5663;50.864;12.096;2023-04-10T11:31:22;99894.34;;;22.51;35.23
11212;BME280;5663;50.864;12.096;2023-04-10T11:34:02;99898.94;;;22.30;35.54
11212;BME280;5663;50.864;12.096;2023-04-10T11:36:36;99897.25;;;22.09;36.44
11212;BME280;5663;50.864;12.096;2023-04-10T11:39:06;99892.78;;;22.00;36.27
11212;BME280;5663;50.864;12.096;2023-04-10T11:41:37;99891.66;;;21.83;35.65
11212;BME280;5663;50.864;12.096;2023-04-10T11:44:09;99897.50;;;21.68;36.66
11212;BME280;5663;50.864;12.096;2023-04-10T11:46:39;99894.41;;;21.62;37.49
11212;BME280;5663;50.864;12.096;2023-04-10T11:49:19;99882.97;;;21.62;36.13
11212;BME280;5663;50.864;12.096;2023-04-10T11:51:50;99875.69;;;21.54;37.04
11212;BME280;5663;50.864;12.096;2023-04-10T11:54:19;99879.19;;;21.45;37.08
11212;BME280;5663;50.864;12.096;2023-04-10T11:57:00;99872.84;;;21.27;36.10
11212;BME280;5663;50.864;12.096;2023-04-10T11:59:31;99833.97;;;20.87;37.36
11212;BME280;5663;50.864;12.096;2023-04-10T12:02:05;99866.22;;;21.11;36.59
11212;BME280;5663;50.864;12.096;2023-04-10T12:04:38;99864.00;;;21.16;37.29
11212;BME280;5663;50.864;12.096;2023-04-10T12:07:08;99812.28;;;20.93;36.43
11212;BME280;5663;50.864;12.096;2023-04-10T12:09:37;99845.59;;;21.05;36.20
11212;BME280;5663;50.864;12.096;2023-04-10T12:12:07;99843.91;;;20.95;36.71
11212;BME280;5663;50.864;12.096;2023-04-10T12:14:37;99839.03;;;21.00;36.78
11212;BME280;5663;50.864;12.096;2023-04-10T12:17:06;99831.03;;;21.21;36.63
11212;BME280;5663;50.864;12.096;2023-04-10T12:19:36;99829.31;;;21.50;36.82
11212;BME280;5663;50.864;12.096;2023-04-10T12:22:10;99817.50;;;21.64;35.69
11212;BME280;5663;50.864;12.096;2023-04-10T12:24:43;99813.03;;;21.64;35.34
11212;BME280;5663;50.864;12.096;2023-04-10T12:27:19;99819.19;;;21.75;36.15
11212;BME280;5663;50.864;12.096;2023-04-10T12:29:48;99770.69;;;21.55;35.03
11212;BME280;5663;50.864;12.096;2023-04-10T12:32:16;99781.81;;;21.78;36.50
11212;BME280;5663;50.864;12.096;2023-04-10T12:34:49;99809.97;;;22.18;34.40
11212;BME280;5663;50.864;12.096;2023-04-10T12:37:20;99808.69;;;22.41;34.66
11212;BME280;5663;50.864;12.096;2023-04-10T12:39:48;99782.50;;;22.28;34.34
11212;BME280;5663;50.864;12.096;2023-04-10T12:42:20;99705.44;;;22.02;33.65
11212;BME280;5663;50.864;12.096;2023-04-10T12:44:57;99799.69;;;22.61;34.20
11212;BME280;5663;50.864;12.096;2023-04-10T12:47:28;99777.53;;;22.53;33.20
11212;BME280;5663;50.864;12.096;2023-04-10T12:50:04;99781.56;;;22.67;32.08
11212;BME280;5663;50.864;12.096;2023-04-10T12:52:40;99782.50;;;22.75;33.34
11212;BME280;5663;50.864;12.096;2023-04-10T12:55:12;99784.09;;;22.86;33.21
11212;BME280;5663;50.864;12.096;2023-04-10T12:57:47;99768.19;;;22.86;34.14
11212;BME280;5663;50.864;12.096;2023-04-10T13:00:18;99765.97;;;22.91;32.79
11212;BME280;5663;50.864;12.096;2023-04-10T13:02:48;99765.38;;;22.97;32.00
11212;BME280;5663;50.864;12.096;2023-04-10T13:05:16;99758.13;;;22.90;32.19
11212;BME280;5663;50.864;12.096;2023-04-10T13:07:48;99751.97;;;22.89;32.34
11212;BME280;5663;50.864;12.096;2023-04-10T13:10:19;99744.75;;;22.91;32.00
11212;BME280;5663;50.864;12.096;2023-04-10T13:12:47;99750.25;;;23.07;31.84
11212;BME280;5663;50.864;12.096;2023-04-10T13:15:19;99731.53;;;23.27;31.46